createdAt,value
2024-01-10T00:00:39.788Z,101784.13
2024-01-10T00:01:30.798Z,101789.97
2024-01-10T00:02:21.794Z,101788.91
2024-01-10T00:03:12.711Z,101789.13
2024-01-10T00:04:05.888Z,101787.28
2024-01-10T00:04:57.004Z,101787.03
2024-01-10T00:05:47.891Z,101785.25
2024-01-10T00:06:38.946Z,101786.50
2024-01-10T00:07:29.669Z,101783.06
2024-01-10T00:08:20.696Z,101783.25
2024-01-10T00:09:11.495Z,101774.66
2024-01-10T00:10:03.198Z,101776.31
2024-01-10T00:10:55.511Z,101783.34
2024-01-10T00:11:47.056Z,101778.13
2024-01-10T00:12:38.384Z,101777.25
2024-01-10T00:13:29.080Z,101783.34
2024-01-10T00:14:19.839Z,101778.31
2024-01-10T00:15:13.696Z,101773.13
2024-01-10T00:16:04.749Z,101777.44
2024-01-10T00:16:55.353Z,101774.78
2024-01-10T00:17:46.261Z,101777.25
2024-01-10T00:18:37.242Z,101769.59
2024-01-10T00:19:28.012Z,101774.72
2024-01-10T00:20:18.962Z,101768.56
2024-01-10T00:21:09.702Z,101765.16
2024-01-10T00:22:00.620Z,101772.66
2024-01-10T00:22:51.531Z,101771.09
2024-01-10T00:23:42.223Z,101767.34
2024-01-10T00:24:33.112Z,101768.28
2024-01-10T00:25:24.178Z,101766.50
2024-01-10T00:26:15.055Z,101767.25
2024-01-10T00:27:06.684Z,101763.03
2024-01-10T00:27:57.540Z,101761.97
2024-01-10T00:28:48.396Z,101761.09
2024-01-10T00:29:39.034Z,101763.72
2024-01-10T00:30:29.801Z,101772.19
2024-01-10T00:31:20.636Z,101764.69
2024-01-10T00:32:11.453Z,101762.97
2024-01-10T00:33:02.424Z,101769.97
2024-01-10T00:33:53.241Z,101768.34
2024-01-10T00:34:44.129Z,101771.81
2024-01-10T00:35:35.152Z,101775.97
2024-01-10T00:36:25.816Z,101774.25
2024-01-10T00:37:17.310Z,101769.00
2024-01-10T00:38:07.989Z,101768.81
2024-01-10T00:38:58.992Z,101767.13
2024-01-10T00:39:49.720Z,101764.50
2024-01-10T00:40:40.791Z,101762.88
2024-01-10T00:41:31.711Z,101766.25
2024-01-10T00:42:22.517Z,101760.41
2024-01-10T00:43:13.409Z,101769.56
2024-01-10T00:44:04.524Z,101768.53
2024-01-10T00:44:55.310Z,101766.81
2024-01-10T00:45:46.575Z,101772.84
2024-01-10T00:46:39.909Z,101772.84
2024-01-10T00:47:31.033Z,101769.13
2024-01-10T00:48:21.996Z,101768.25
2024-01-10T00:49:12.957Z,101766.50
2024-01-10T00:50:04.132Z,101769.19
2024-01-10T00:50:55.110Z,101772.50
2024-01-10T00:51:45.927Z,101769.97
2024-01-10T00:52:37.199Z,101772.56
2024-01-10T00:53:28.027Z,101770.28
2024-01-10T00:54:19.142Z,101774.66
2024-01-10T00:55:09.980Z,101767.00
2024-01-10T00:56:00.939Z,101770.81
2024-01-10T00:56:51.886Z,101766.78
2024-01-10T00:57:42.722Z,101770.34
2024-01-10T00:58:33.636Z,101776.31
2024-01-10T00:59:24.418Z,101774.56
2024-01-10T01:00:16.313Z,101771.88
2024-01-10T01:01:07.349Z,101771.78
2024-01-10T01:01:58.031Z,101771.91
2024-01-10T01:02:48.922Z,101775.22
2024-01-10T01:03:39.953Z,101773.63
2024-01-10T01:04:31.120Z,101778.09
2024-01-10T01:05:21.854Z,101770.19
2024-01-10T01:06:13.367Z,101771.59
2024-01-10T01:07:04.420Z,101768.25
2024-01-10T01:07:55.014Z,101771.81
2024-01-10T01:08:45.764Z,101776.19
2024-01-10T01:09:36.767Z,101774.94
2024-01-10T01:10:27.647Z,101772.88
2024-01-10T01:11:18.492Z,101778.81
2024-01-10T01:12:09.384Z,101775.44
2024-01-10T01:13:00.320Z,101772.25
2024-01-10T01:13:51.311Z,101776.34
2024-01-10T01:14:42.138Z,101775.56
2024-01-10T01:15:33.102Z,101778.19
2024-01-10T01:16:23.970Z,101783.03
2024-01-10T01:17:15.008Z,101783.81
2024-01-10T01:18:06.616Z,101782.13
2024-01-10T01:18:57.648Z,101777.97
2024-01-10T01:19:48.602Z,101775.66
2024-01-10T01:20:39.603Z,101783.47
2024-01-10T01:21:30.332Z,101778.34
2024-01-10T01:22:21.365Z,101780.66
2024-01-10T01:23:12.352Z,101775.78
2024-01-10T01:24:03.165Z,101785.94
2024-01-10T01:24:53.923Z,101782.06
2024-01-10T01:25:44.920Z,101781.09
2024-01-10T01:26:35.859Z,101777.66
2024-01-10T01:27:26.751Z,101783.47
2024-01-10T01:28:17.473Z,101782.56
2024-01-10T01:29:09.870Z,101778.25
2024-01-10T01:30:00.683Z,101785.25
2024-01-10T01:30:52.083Z,101779.03
2024-01-10T01:31:42.982Z,101782.25
2024-01-10T01:32:33.967Z,101780.53
2024-01-10T01:33:24.790Z,101779.75
2024-01-10T01:34:15.645Z,101776.31
2024-01-10T01:35:06.841Z,101774.72
2024-01-10T01:35:57.830Z,101775.63
2024-01-10T01:36:49.024Z,101770.41
2024-01-10T01:37:40.019Z,101779.53
2024-01-10T01:38:30.991Z,101777.03
2024-01-10T01:39:21.844Z,101776.94
2024-01-10T01:40:12.983Z,101773.63
2024-01-10T01:41:04.136Z,101774.63
2024-01-10T01:41:55.192Z,101776.09
2024-01-10T01:42:46.903Z,101772.56
2024-01-10T01:43:37.706Z,101770.72
2024-01-10T01:44:28.781Z,101773.22
2024-01-10T01:45:20.333Z,101771.31
2024-01-10T01:46:12.021Z,101771.50
2024-01-10T01:47:04.166Z,101769.78
2024-01-10T01:47:55.267Z,101766.47
2024-01-10T01:48:47.323Z,101768.81
2024-01-10T01:49:38.775Z,101766.13
2024-01-10T01:50:29.972Z,101760.88
2024-01-10T01:51:23.161Z,101763.63
2024-01-10T01:52:14.162Z,101761.78
2024-01-10T01:53:05.072Z,101761.03
2024-01-10T01:53:56.882Z,101755.06
2024-01-10T01:54:48.788Z,101754.09
2024-01-10T01:55:39.595Z,101753.72
2024-01-10T01:56:30.750Z,101754.78
2024-01-10T01:57:21.708Z,101747.25
2024-01-10T01:58:13.600Z,101744.41
2024-01-10T01:59:06.296Z,101748.69
2024-01-10T01:59:58.130Z,101739.53
2024-01-10T02:00:49.374Z,101744.63
2024-01-10T02:01:41.614Z,101741.31
2024-01-10T02:02:33.800Z,101734.47
2024-01-10T02:03:24.696Z,101737.16
2024-01-10T02:04:15.945Z,101734.13
2024-01-10T02:05:07.185Z,101733.72
2024-01-10T02:05:58.970Z,101735.56
2024-01-10T02:06:50.140Z,101737.19
2024-01-10T02:07:41.052Z,101740.28
2024-01-10T02:08:36.460Z,101742.41
2024-01-10T02:09:27.923Z,101744.69
2024-01-10T02:10:20.704Z,101739.47
2024-01-10T02:11:11.295Z,101745.25
2024-01-10T02:12:02.296Z,101745.59
2024-01-10T02:12:53.215Z,101745.25
2024-01-10T02:13:43.923Z,101742.63
2024-01-10T02:14:35.602Z,101745.81
2024-01-10T02:15:26.775Z,101741.63
2024-01-10T02:16:17.763Z,101745.78
2024-01-10T02:17:08.653Z,101738.69
2024-01-10T02:17:59.775Z,101736.09
2024-01-10T02:18:51.451Z,101733.00
2024-01-10T02:19:42.633Z,101734.03
2024-01-10T02:20:34.451Z,101733.94
2024-01-10T02:21:25.270Z,101735.06
2024-01-10T02:22:16.184Z,101730.25
2024-01-10T02:23:07.295Z,101729.25
2024-01-10T02:26:24.395Z,101730.78
2024-01-10T02:27:15.536Z,101733.88
2024-01-10T02:28:06.608Z,101726.09
2024-01-10T02:28:57.074Z,101727.00
2024-01-10T02:29:48.183Z,101727.94
2024-01-10T02:30:39.253Z,101730.34
2024-01-10T02:31:30.179Z,101730.22
2024-01-10T02:32:21.116Z,101723.38
2024-01-10T02:33:12.222Z,101724.25
2024-01-10T02:34:02.966Z,101727.78
2024-01-10T02:34:53.756Z,101723.59
2024-01-10T02:35:44.672Z,101722.22
2024-01-10T02:36:37.696Z,101726.38
2024-01-10T02:37:28.207Z,101718.47
2024-01-10T02:38:22.416Z,101725.13
2024-01-10T02:39:13.549Z,101723.84
2024-01-10T02:40:04.772Z,101722.41
2024-01-10T02:40:57.395Z,101725.09
2024-01-10T02:41:48.181Z,101732.06
2024-01-10T02:42:40.273Z,101734.47
2024-01-10T02:43:30.731Z,101737.09
2024-01-10T02:44:23.164Z,101733.00
2024-01-10T02:45:14.407Z,101735.53
2024-01-10T02:46:05.207Z,101733.69
2024-01-10T02:46:56.122Z,101734.47
2024-01-10T02:47:47.261Z,101743.72
2024-01-10T02:48:38.249Z,101729.72
2024-01-10T02:49:28.980Z,101737.88
2024-01-10T02:50:20.016Z,101740.25
2024-01-10T02:51:11.334Z,101733.38
2024-01-10T02:52:02.470Z,101743.47
2024-01-10T02:52:53.097Z,101735.06
2024-01-10T02:53:43.923Z,101731.75
2024-01-10T02:54:34.788Z,101736.25
2024-01-10T02:55:25.787Z,101729.34
2024-01-10T02:56:16.596Z,101731.09
2024-01-10T02:57:07.529Z,101731.06
2024-01-10T02:57:58.124Z,101740.25
2024-01-10T02:58:49.048Z,101732.53
2024-01-10T02:59:39.792Z,101735.78
2024-01-10T03:00:30.627Z,101734.06
2024-01-10T03:01:21.515Z,101737.41
2024-01-10T03:02:12.646Z,101739.16
2024-01-10T03:03:03.215Z,101734.41
2024-01-10T03:03:54.080Z,101727.63
2024-01-10T03:04:45.789Z,101737.06
2024-01-10T03:05:36.998Z,101735.63
2024-01-10T03:06:27.876Z,101736.38
2024-01-10T03:07:18.642Z,101733.47
2024-01-10T03:08:09.714Z,101743.31
2024-01-10T03:09:00.426Z,101743.38
2024-01-10T03:09:51.318Z,101728.34
2024-01-10T03:10:42.030Z,101731.78
2024-01-10T03:11:35.136Z,101734.53
2024-01-10T03:12:25.911Z,101731.00
2024-01-10T03:13:16.930Z,101728.00
2024-01-10T03:14:12.630Z,101736.63
2024-01-10T03:15:03.592Z,101733.16
2024-01-10T03:15:54.153Z,101730.78
2024-01-10T03:16:45.160Z,101728.22
2024-01-10T03:17:37.004Z,101729.16
2024-01-10T03:18:27.864Z,101728.09
2024-01-10T03:19:18.629Z,101733.84
2024-01-10T03:20:10.094Z,101730.16
2024-01-10T03:21:01.122Z,101726.00
2024-01-10T03:21:52.113Z,101725.69
2024-01-10T03:22:43.111Z,101727.25
2024-01-10T03:23:33.952Z,101726.47
2024-01-10T03:24:27.804Z,101728.44
2024-01-10T03:25:18.712Z,101726.03
2024-01-10T03:26:11.010Z,101715.94
2024-01-10T03:27:01.848Z,101725.25
2024-01-10T03:27:52.767Z,101715.00
2024-01-10T03:28:43.652Z,101719.94
2024-01-10T03:29:35.925Z,101725.09
2024-01-10T03:30:26.703Z,101719.19
2024-01-10T03:31:18.548Z,101713.31
2024-01-10T03:32:09.318Z,101717.31
2024-01-10T03:33:00.011Z,101722.19
2024-01-10T03:33:51.584Z,101719.00
2024-01-10T03:34:43.749Z,101725.28
2024-01-10T03:35:34.822Z,101723.28
2024-01-10T03:36:25.936Z,101720.56
2024-01-10T03:37:16.452Z,101717.16
2024-01-10T03:38:07.217Z,101716.09
2024-01-10T03:38:57.932Z,101720.19
2024-01-10T03:39:48.816Z,101710.22
2024-01-10T03:40:39.711Z,101718.69
2024-01-10T03:41:30.554Z,101707.59
2024-01-10T03:42:21.428Z,101712.69
2024-01-10T03:43:13.319Z,101708.94
2024-01-10T03:44:04.256Z,101707.16
2024-01-10T03:44:55.289Z,101712.31
2024-01-10T03:45:46.024Z,101709.84
2024-01-10T03:46:37.363Z,101708.09
2024-01-10T03:47:28.139Z,101714.09
2024-01-10T03:48:18.917Z,101713.88
2024-01-10T03:49:09.583Z,101709.44
2024-01-10T03:50:00.672Z,101700.06
2024-01-10T03:50:51.670Z,101702.38
2024-01-10T03:51:42.931Z,101701.53
2024-01-10T03:52:33.424Z,101708.16
2024-01-10T03:53:24.402Z,101704.56
2024-01-10T03:54:15.193Z,101709.63
2024-01-10T03:55:05.869Z,101707.28
2024-01-10T03:55:56.673Z,101703.22
2024-01-10T03:56:47.526Z,101699.84
2024-01-10T03:57:38.258Z,101697.63
2024-01-10T03:58:29.012Z,101696.47
2024-01-10T03:59:19.928Z,101694.63
2024-01-10T04:00:11.432Z,101695.34
2024-01-10T04:01:09.214Z,101699.25
2024-01-10T04:02:01.773Z,101697.31
2024-01-10T04:02:53.918Z,101697.22
2024-01-10T04:03:45.534Z,101693.84
2024-01-10T04:04:39.620Z,101694.22
2024-01-10T04:05:30.578Z,101696.88
2024-01-10T04:06:21.451Z,101688.47
2024-01-10T04:07:12.473Z,101692.09
2024-01-10T04:08:05.065Z,101691.31
2024-01-10T04:08:55.822Z,101694.78
2024-01-10T04:09:46.704Z,101699.78
2024-01-10T04:10:37.720Z,101696.53
2024-01-10T04:11:28.758Z,101694.00
2024-01-10T04:12:19.544Z,101695.97
2024-01-10T04:13:10.397Z,101696.09
2024-01-10T04:14:01.329Z,101694.38
2024-01-10T04:14:52.062Z,101694.56
2024-01-10T04:15:42.905Z,101692.69
2024-01-10T04:16:33.914Z,101693.56
2024-01-10T04:17:24.813Z,101696.09
2024-01-10T04:18:17.545Z,101694.44
2024-01-10T04:19:11.430Z,101695.09
2024-01-10T04:20:03.328Z,101697.88
2024-01-10T04:20:54.373Z,101705.59
2024-01-10T04:21:45.441Z,101693.00
2024-01-10T04:22:36.378Z,101702.47
2024-01-10T04:23:27.078Z,101696.13
2024-01-10T04:24:20.251Z,101694.44
2024-01-10T04:25:12.247Z,101693.38
2024-01-10T04:26:04.225Z,101692.44
2024-01-10T04:26:55.328Z,101696.00
2024-01-10T04:27:46.381Z,101691.69
2024-01-10T04:28:40.340Z,101694.44
2024-01-10T04:29:31.027Z,101694.66
2024-01-10T04:30:22.048Z,101697.84
2024-01-10T04:31:12.936Z,101696.22
2024-01-10T04:32:03.983Z,101691.81
2024-01-10T04:32:55.113Z,101692.69
2024-01-10T04:33:45.966Z,101694.34
2024-01-10T04:34:37.043Z,101700.09
2024-01-10T04:35:27.884Z,101702.63
2024-01-10T04:36:18.521Z,101698.53
2024-01-10T04:37:09.675Z,101699.22
2024-01-10T04:38:00.582Z,101699.47
2024-01-10T04:38:51.411Z,101695.78
2024-01-10T04:39:44.099Z,101696.00
2024-01-10T04:40:35.167Z,101698.53
2024-01-10T04:41:26.411Z,101704.50
2024-01-10T04:42:17.226Z,101702.78
2024-01-10T04:43:08.157Z,101695.16
2024-01-10T04:43:59.223Z,101696.22
2024-01-10T04:44:50.798Z,101691.38
2024-01-10T04:45:41.361Z,101694.78
2024-01-10T04:46:32.253Z,101698.13
2024-01-10T04:47:23.187Z,101702.31
2024-01-10T04:48:14.145Z,101695.50
2024-01-10T04:49:05.046Z,101697.69
2024-01-10T04:49:56.023Z,101695.16
2024-01-10T04:50:46.945Z,101693.47
2024-01-10T04:51:38.133Z,101692.63
2024-01-10T04:52:29.129Z,101696.13
2024-01-10T04:53:20.187Z,101693.59
2024-01-10T04:54:10.820Z,101699.50
2024-01-10T04:55:01.726Z,101688.75
2024-01-10T04:55:52.882Z,101700.22
2024-01-10T04:56:43.735Z,101698.25
2024-01-10T04:57:34.738Z,101700.69
2024-01-10T04:58:25.532Z,101696.31
2024-01-10T04:59:16.649Z,101693.25
2024-01-10T05:00:07.933Z,101693.31
2024-01-10T05:00:58.624Z,101698.53
2024-01-10T05:01:49.506Z,101700.75
2024-01-10T05:02:40.560Z,101692.22
2024-01-10T05:03:31.327Z,101690.81
2024-01-10T05:04:22.348Z,101703.28
2024-01-10T05:05:13.345Z,101699.97
2024-01-10T05:06:06.084Z,101698.53
2024-01-10T05:06:56.957Z,101699.59
2024-01-10T05:07:47.771Z,101696.59
2024-01-10T05:08:38.639Z,101698.72
2024-01-10T05:09:29.893Z,101697.03
2024-01-10T05:10:20.543Z,101696.88
2024-01-10T05:11:11.913Z,101695.91
2024-01-10T05:12:02.971Z,101698.28
2024-01-10T05:12:56.151Z,101689.44
2024-01-10T05:13:46.734Z,101692.44
2024-01-10T05:14:37.666Z,101693.16
2024-01-10T05:15:28.608Z,101687.06
2024-01-10T05:16:19.593Z,101692.13
2024-01-10T05:17:10.446Z,101693.00
2024-01-10T05:18:01.701Z,101695.75
2024-01-10T05:18:53.153Z,101691.44
2024-01-10T05:19:44.124Z,101695.69
2024-01-10T05:20:35.433Z,101699.16
2024-01-10T05:21:27.753Z,101694.91
2024-01-10T05:22:18.576Z,101693.31
2024-01-10T05:23:09.443Z,101696.59
2024-01-10T05:24:00.459Z,101693.78
2024-01-10T05:24:51.641Z,101699.84
2024-01-10T05:25:42.159Z,101700.47
2024-01-10T05:26:33.226Z,101704.16
2024-01-10T05:27:24.502Z,101696.47
2024-01-10T05:28:15.577Z,101695.44
2024-01-10T05:29:06.245Z,101703.84
2024-01-10T05:29:57.128Z,101710.31
2024-01-10T05:30:48.505Z,101699.03
2024-01-10T05:31:39.655Z,101703.31
2024-01-10T05:32:30.392Z,101698.31
2024-01-10T05:33:21.425Z,101697.47
2024-01-10T05:34:12.572Z,101695.84
2024-01-10T05:35:03.456Z,101695.78
2024-01-10T05:35:54.283Z,101697.31
2024-01-10T05:36:48.267Z,101694.78
2024-01-10T05:37:39.246Z,101697.53
2024-01-10T05:38:30.032Z,101694.84
2024-01-10T05:39:21.912Z,101697.31
2024-01-10T05:40:12.956Z,101691.91
2024-01-10T05:41:03.741Z,101693.69
2024-01-10T05:41:54.481Z,101698.53
2024-01-10T05:42:48.469Z,101691.53
2024-01-10T05:43:39.240Z,101696.00
2024-01-10T05:44:30.575Z,101696.97
2024-01-10T05:45:21.328Z,101689.16
2024-01-10T05:46:12.213Z,101693.44
2024-01-10T05:47:04.095Z,101695.72
2024-01-10T05:47:55.994Z,101697.31
2024-01-10T05:48:48.090Z,101693.94
2024-01-10T05:49:38.926Z,101690.91
2024-01-10T05:50:29.896Z,101689.38
2024-01-10T05:51:21.174Z,101695.38
2024-01-10T05:52:13.017Z,101690.91
2024-01-10T05:53:04.389Z,101694.16
2024-01-10T05:53:55.292Z,101695.28
2024-01-10T05:54:46.474Z,101701.31
2024-01-10T05:55:38.096Z,101692.94
2024-01-10T05:56:28.728Z,101694.44
2024-01-10T05:57:20.230Z,101691.94
2024-01-10T05:58:11.817Z,101695.09
2024-01-10T05:59:02.617Z,101689.69
2024-01-10T05:59:57.022Z,101695.69
2024-01-10T06:00:47.711Z,101694.78
2024-01-10T06:01:41.369Z,101695.00
2024-01-10T06:02:32.726Z,101696.38
2024-01-10T06:03:23.463Z,101697.25
2024-01-10T06:04:14.266Z,101691.47
2024-01-10T06:05:07.693Z,101699.16
2024-01-10T06:05:58.633Z,101692.47
2024-01-10T06:06:49.532Z,101699.38
2024-01-10T06:07:44.170Z,101697.59
2024-01-10T06:08:36.695Z,101699.66
2024-01-10T06:09:28.235Z,101697.84
2024-01-10T06:10:19.038Z,101701.78
2024-01-10T06:11:11.232Z,101694.75
2024-01-10T06:12:02.583Z,101694.97
2024-01-10T06:12:53.356Z,101691.84
2024-01-10T06:13:50.018Z,101698.06
2024-01-10T06:14:45.208Z,101697.41
2024-01-10T06:15:36.123Z,101689.78
2024-01-10T06:16:27.143Z,101695.59
2024-01-10T06:17:18.190Z,101693.81
2024-01-10T06:18:09.144Z,101697.41
2024-01-10T06:19:00.691Z,101691.44
2024-01-10T06:19:52.152Z,101696.59
2024-01-10T06:20:42.976Z,101689.88
2024-01-10T06:21:34.068Z,101689.09
2024-01-10T06:22:28.698Z,101685.63
2024-01-10T06:23:21.276Z,101683.81
2024-01-10T06:24:12.066Z,101682.81
2024-01-10T06:25:03.065Z,101688.59
2024-01-10T06:25:55.584Z,101685.22
2024-01-10T06:26:46.528Z,101682.72
2024-01-10T06:27:37.392Z,101681.00
2024-01-10T06:28:28.332Z,101679.88
2024-01-10T06:29:19.977Z,101677.22
2024-01-10T06:30:11.285Z,101684.97
2024-01-10T06:31:02.292Z,101686.03
2024-01-10T06:31:57.342Z,101688.53
2024-01-10T06:32:48.184Z,101692.84
2024-01-10T06:33:39.082Z,101689.59
2024-01-10T06:34:29.731Z,101687.06
2024-01-10T06:35:21.140Z,101687.97
2024-01-10T06:36:11.832Z,101693.97
2024-01-10T06:37:02.863Z,101692.38
2024-01-10T06:37:53.995Z,101693.28
2024-01-10T06:38:45.091Z,101689.09
2024-01-10T06:39:36.228Z,101696.50
2024-01-10T06:40:26.779Z,101694.75
2024-01-10T06:41:17.721Z,101691.44
2024-01-10T06:42:11.840Z,101695.56
2024-01-10T06:43:03.283Z,101692.13
2024-01-10T06:43:54.346Z,101702.44
2024-01-10T06:44:47.052Z,101695.00
2024-01-10T06:45:37.826Z,101703.41
2024-01-10T06:46:28.719Z,101700.81
2024-01-10T06:47:19.702Z,101699.97
2024-01-10T06:48:10.593Z,101701.19
2024-01-10T06:49:01.503Z,101702.09
2024-01-10T06:49:52.386Z,101703.06
2024-01-10T06:50:45.292Z,101705.63
2024-01-10T06:51:36.267Z,101709.88
2024-01-10T06:52:27.371Z,101697.16
2024-01-10T06:53:18.472Z,101702.09
2024-01-10T06:54:09.860Z,101707.25
2024-01-10T06:55:01.036Z,101706.25
2024-01-10T06:55:51.680Z,101702.84
2024-01-10T06:56:44.313Z,101704.66
2024-01-10T06:57:36.498Z,101700.41
2024-01-10T06:58:27.328Z,101702.25
2024-01-10T06:59:18.284Z,101707.25
2024-01-10T07:00:12.395Z,101700.84
2024-01-10T07:01:06.420Z,101706.59
2024-01-10T07:01:57.530Z,101705.03
2024-01-10T07:02:50.112Z,101701.69
2024-01-10T07:03:42.077Z,101701.69
2024-01-10T07:04:33.442Z,101701.72
2024-01-10T07:05:24.845Z,101700.75
2024-01-10T07:06:16.728Z,101706.69
2024-01-10T07:07:09.819Z,101704.00
2024-01-10T07:08:04.288Z,101706.38
2024-01-10T07:08:55.495Z,101711.56
2024-01-10T07:09:46.713Z,101705.56
2024-01-10T07:10:39.479Z,101704.94
2024-01-10T07:11:30.935Z,101710.13
2024-01-10T07:12:21.997Z,101709.09
2024-01-10T07:13:12.872Z,101709.22
2024-01-10T07:14:04.783Z,101714.44
2024-01-10T07:14:55.747Z,101703.50
2024-01-10T07:15:46.575Z,101715.50
2024-01-10T07:16:37.516Z,101709.50
2024-01-10T07:17:28.485Z,101709.84
2024-01-10T07:18:19.228Z,101709.00
2024-01-10T07:19:14.382Z,101706.66
2024-01-10T07:20:06.651Z,101705.75
2024-01-10T07:20:57.999Z,101704.19
2024-01-10T07:21:49.289Z,101706.00
2024-01-10T07:22:45.234Z,101711.16
2024-01-10T07:23:36.545Z,101708.41
2024-01-10T07:24:27.389Z,101705.94
2024-01-10T07:25:18.605Z,101705.75
2024-01-10T07:26:09.390Z,101705.75
2024-01-10T07:27:00.421Z,101708.53
2024-01-10T07:27:51.120Z,101707.66
2024-01-10T07:28:43.101Z,101710.25
2024-01-10T07:29:34.239Z,101712.84
2024-01-10T07:30:25.402Z,101705.88
2024-01-10T07:31:16.995Z,101712.06
2024-01-10T07:32:12.536Z,101717.03
2024-01-10T07:33:04.082Z,101720.34
2024-01-10T07:33:56.187Z,101716.16
2024-01-10T07:34:47.131Z,101716.41
2024-01-10T07:35:39.356Z,101718.00
2024-01-10T07:36:34.754Z,101719.66
2024-01-10T07:37:25.760Z,101718.00
2024-01-10T07:38:16.605Z,101715.50
2024-01-10T07:39:07.408Z,101715.41
2024-01-10T07:39:58.877Z,101717.88
2024-01-10T07:40:49.983Z,101720.22
2024-01-10T07:41:41.074Z,101717.59
2024-01-10T07:42:32.334Z,101730.34
2024-01-10T07:43:23.886Z,101723.81
2024-01-10T07:44:14.789Z,101721.28
2024-01-10T07:45:06.156Z,101724.66
2024-01-10T07:45:57.064Z,101721.50
2024-01-10T07:46:47.960Z,101723.13
2024-01-10T07:47:39.353Z,101728.28
2024-01-10T07:48:31.762Z,101718.28
2024-01-10T07:49:23.057Z,101719.16
2024-01-10T07:50:15.629Z,101718.16
2024-01-10T07:51:06.468Z,101719.94
2024-01-10T07:51:57.722Z,101725.94
2024-01-10T07:52:48.335Z,101717.72
2024-01-10T07:53:39.177Z,101714.22
2024-01-10T07:54:29.986Z,101717.66
2024-01-10T07:55:21.300Z,101719.47
2024-01-10T07:56:14.048Z,101716.75
2024-01-10T07:57:04.893Z,101713.34
2024-01-10T07:57:55.663Z,101717.72
2024-01-10T07:58:46.739Z,101721.38
2024-01-10T07:59:37.703Z,101720.63
2024-01-10T08:00:28.733Z,101719.88
2024-01-10T08:01:20.016Z,101718.22
2024-01-10T08:02:11.560Z,101719.81
2024-01-10T08:03:02.385Z,101721.41
2024-01-10T08:03:53.420Z,101717.00
2024-01-10T08:04:44.186Z,101722.88
2024-01-10T08:05:35.815Z,101730.44
2024-01-10T08:06:32.351Z,101716.94
2024-01-10T08:07:24.779Z,101713.63
2024-01-10T08:08:15.503Z,101717.06
2024-01-10T08:09:06.621Z,101718.28
2024-01-10T08:09:57.501Z,101723.47
2024-01-10T08:10:48.382Z,101721.88
2024-01-10T08:11:39.554Z,101721.13
2024-01-10T08:12:30.493Z,101714.91
2024-01-10T08:13:21.663Z,101714.06
2024-01-10T08:14:13.415Z,101713.31
2024-01-10T08:15:04.767Z,101713.31
2024-01-10T08:15:55.608Z,101721.06
2024-01-10T08:16:49.258Z,101721.25
2024-01-10T08:17:40.448Z,101713.72
2024-01-10T08:18:31.818Z,101721.31
2024-01-10T08:19:22.691Z,101712.09
2024-01-10T08:20:16.190Z,101718.31
2024-01-10T08:21:07.340Z,101716.63
2024-01-10T08:21:58.247Z,101717.72
2024-01-10T08:22:49.700Z,101723.72
2024-01-10T08:23:40.532Z,101727.91
2024-01-10T08:24:31.601Z,101727.91
2024-01-10T08:25:22.648Z,101723.44
2024-01-10T08:26:13.713Z,101728.59
2024-01-10T08:27:04.916Z,101721.72
2024-01-10T08:27:57.954Z,101728.03
2024-01-10T08:28:48.706Z,101723.75
2024-01-10T08:29:39.778Z,101726.03
2024-01-10T08:30:30.442Z,101730.72
2024-01-10T08:31:21.441Z,101724.22
2024-01-10T08:32:12.992Z,101722.72
2024-01-10T08:33:05.796Z,101724.56
2024-01-10T08:33:58.978Z,101727.16
2024-01-10T08:34:50.099Z,101728.94
2024-01-10T08:35:41.278Z,101732.16
2024-01-10T08:36:32.216Z,101726.38
2024-01-10T08:37:22.967Z,101733.25
2024-01-10T08:38:13.814Z,101728.16
2024-01-10T08:39:07.754Z,101734.81
2024-01-10T08:40:00.288Z,101726.22
2024-01-10T08:40:51.002Z,101734.63
2024-01-10T08:41:45.321Z,101735.44
2024-01-10T08:42:39.072Z,101733.69
2024-01-10T08:43:30.524Z,101733.13
2024-01-10T08:44:21.225Z,101731.59
2024-01-10T08:45:12.595Z,101731.81
2024-01-10T08:46:03.172Z,101728.47
2024-01-10T08:46:54.313Z,101720.09
2024-01-10T08:47:45.312Z,101725.13
2024-01-10T08:48:37.712Z,101721.56
2024-01-10T08:49:28.579Z,101726.66
2024-01-10T08:50:19.470Z,101718.84
2024-01-10T08:51:11.299Z,101723.94
2024-01-10T08:52:02.200Z,101724.78
2024-01-10T08:52:53.612Z,101718.03
2024-01-10T08:53:45.172Z,101718.84
2024-01-10T08:54:36.666Z,101723.31
2024-01-10T08:55:27.261Z,101729.44
2024-01-10T08:56:18.354Z,101724.19
2024-01-10T08:57:09.543Z,101729.59
2024-01-10T08:58:00.381Z,101721.09
2024-01-10T08:58:51.396Z,101723.84
2024-01-10T08:59:43.622Z,101723.09
2024-01-10T09:00:35.442Z,101729.22
2024-01-10T09:01:26.617Z,101730.91
2024-01-10T09:02:17.719Z,101724.97
2024-01-10T09:03:08.569Z,101728.38
2024-01-10T09:03:59.430Z,101725.75
2024-01-10T09:04:51.229Z,101722.47
2024-01-10T09:05:47.571Z,101722.72
2024-01-10T09:06:45.562Z,101721.31
2024-01-10T09:07:36.856Z,101724.16
2024-01-10T09:08:27.548Z,101722.50
2024-01-10T09:09:21.951Z,101720.00
2024-01-10T09:10:13.016Z,101714.97
2024-01-10T09:11:04.481Z,101721.78
2024-01-10T09:11:55.589Z,101719.84
2024-01-10T09:12:47.708Z,101715.56
2024-01-10T09:13:41.024Z,101706.38
2024-01-10T09:14:32.255Z,101702.97
2024-01-10T09:15:23.045Z,101705.44
2024-01-10T09:16:13.965Z,101702.13
2024-01-10T09:17:05.712Z,101703.72
2024-01-10T09:17:56.862Z,101699.53
2024-01-10T09:18:47.942Z,101702.94
2024-01-10T09:19:39.103Z,101700.50
2024-01-10T09:20:30.048Z,101697.94
2024-01-10T09:21:22.167Z,101696.44
2024-01-10T09:22:14.647Z,101697.19
2024-01-10T09:23:05.514Z,101698.03
2024-01-10T09:23:57.201Z,101692.13
2024-01-10T09:24:48.429Z,101693.16
2024-01-10T09:25:39.298Z,101697.50
2024-01-10T09:26:30.432Z,101693.88
2024-01-10T09:27:23.915Z,101693.66
2024-01-10T09:28:14.976Z,101693.78
2024-01-10T09:29:06.872Z,101695.53
2024-01-10T09:29:57.596Z,101694.00
2024-01-10T09:30:48.735Z,101701.75
2024-01-10T09:31:39.579Z,101697.81
2024-01-10T09:32:30.739Z,101693.75
2024-01-10T09:33:23.666Z,101692.94
2024-01-10T09:34:14.868Z,101692.03
2024-01-10T09:35:05.934Z,101690.19
2024-01-10T09:35:59.173Z,101696.97
2024-01-10T09:36:51.480Z,101703.56
2024-01-10T09:37:42.571Z,101690.50
2024-01-10T09:38:38.502Z,101692.97
2024-01-10T09:39:29.329Z,101692.41
2024-01-10T09:40:22.176Z,101685.91
2024-01-10T09:41:16.168Z,101695.31
2024-01-10T09:42:07.883Z,101699.31
2024-01-10T09:42:59.032Z,101690.59
2024-01-10T09:43:49.920Z,101687.88
2024-01-10T09:44:40.919Z,101691.31
2024-01-10T09:45:35.808Z,101690.69
2024-01-10T09:46:31.045Z,101682.50
2024-01-10T09:47:22.698Z,101688.44
2024-01-10T09:48:15.277Z,101685.91
2024-01-10T09:49:06.835Z,101682.50